logo
Search for airport 
image banner adimage banner adimage banner ad
image banner ad

FLCS - Chinsali

Located in Chinsali, Zambia

ICAO - FLCS, IATA -

Data provided by Airmate  

General information

Coordinates: S10°34'57" E32°4'44"
Elevation is 4350 feet MSL.
Magnetic variation is -3° East
View others Airports in Northern Province

Operational data

Special qualification required
Current time UTC:
Current local time:
Weather at : - ( 0 km )
METAR: CYYB 130543Z AUTO 31016KT 1 1/4SM -SN OVC010 00/00 A2926 RMK ICE PCPN 1.0MM PAST HR SLP924
View NOTAMs / SUP AIP / TFR affecting this airport [VIEW]
Communications frequencies: [VIEW]

Runways:

RWY identifierQFULength (ft)Width (ft)SurfaceLDA (ft)
0985°413786DIRT
27265°413786DIRT

Airport contact information

Address: Chinsali Zambia

Satellite view of FLCS